Main page
METAR-TAF:

METAR-TAF

Airports :

Atkinson Municipal Airport

Pittsburg, Kansas, United States

latitude: 37-26-58N, longitude: 094-43-52W, elevation: 951 ft

Current weather observation

The report was made 13 minutes ago, at 23:35 UTC
Wind 15 mph from the South/Southwest with gusts up to 21 mph
Temperature 97°F
Humidity 37%
Pressure 29.84 in. Hg
Visibility: 10 miles
Clear sky

METAR: KPTS 242335Z AUTO 20013G18KT 10SM CLR 36/19 A2984 RMK AO2 T03550194 PWINO

Time: 18:48 (23:48 UTC)


TAF: missing

Weather observations and forecasts of more than 4000 airports (METAR and TAF reports).

The available stations are represented by yellow and red dots on the map.

Hover mouse over dot to see the name of the station.

Then click to see weather observations and forecasts.

To change the map : click on the green buttons with a black cross to zoom in, on the green button with a dash to zoom out, or on the green arrows for adjacent maps.


METAR-TAF: